Terminal Aerodrome Forecast
Issued by NWS

Home | Current Version | Previous Version | Text Only | Print | Product List | Glossary On
Versions: 1 2 3 4 5 6 7 8 9 10 11 12 13
000
FTUS46 KMFR 212300
TAFLMT
TAF
KLMT 212331Z 2200/2224 23006KT P6SM SCT080 BKN120
     FM220200 VRB03KT P6SM SCT080
     FM222000 21008KT P6SM BKN080=

USA.gov is the U.S. government's official web portal to all federal, state and local government web resources and services.